Airfield :
LOGIN :

Register | Disclaimer

   EN    FR    IT 

 










Legend :    VFR   Marginal VFR   IFR   Intensive IFR   Very Intensive IFR
Visi :
Ceiling :
>= 8 km
>= 3000ft
5 to 8 km
1000 to 3000 ft
1500m to 5 km
500 to 1000 ft
800 to 1500m
200 to 500 ft
< 800m
< 200 ft
Symbols :   Thunderstorms  Fog  Heavy snow  Heavy precipitations  Wind > 20 kt
SIGMETs :     Misc.  Thunderstorms  Icing  Turbulence  Mountain Waves  Volcanic Ashes







- Airport Elevation : -15 ft
- IATA code : RTM


EHRD - Rotterdam Zestienhoven

CURRENT METAR :
  • 201455Z AUTO 27011KT 230V320 9999 NSC 17/11 Q1023 NOSIG

EXPIRED METARs :
  • 201425Z AUTO 27010KT 230V310 9999 FEW033 17/11 Q1023 NOSIG
  • 201355Z AUTO 26009KT 220V300 9999 FEW032 17/11 Q1023 NOSIG
  • 201325Z AUTO 26012KT 220V330 9999 NSC 17/11 Q1023 NOSIG
  • 201255Z AUTO 26012KT 220V290 9999 NSC 19/12 Q1023 NOSIG
  • 201225Z AUTO 27013KT 230V310 9999 FEW040 19/12 Q1023 NOSIG

TAF TAF EHRD
Valid from the 20 at 12:00 until the 21 at 18:00 UTC


201054Z 2012/2118 26014KT 9999 SCT030
BECMG 2017/2020 20006KT
No reported NOTAMs for that airfield.



MET'MAP, your aeronautical weather chart ! - Copyright ORBIFLY December 2007 - Disclaimer

ORBIFLY MET'MAP TEAM :

Programming & Development : Alexandra Zaïnal
Concept & Development : Baudouin d'Aumeries
Co-Development & Prog : Marc-Olivier Méhu
Technical & hardware support : Manuel Goepfert

Contact : metmap@orbifly.com




SOURCES & CREDITS :

   NOAA